sensor_id;sensor_type;location;lat;lon;timestamp;P1;durP1;ratioP1;P2;durP2;ratioP2
3036;SDS011;1528;52.550;13.408;2024-01-06T00:00:33;45.30;;;41.00;;
3036;SDS011;1528;52.550;13.408;2024-01-06T00:03:19;43.10;;;39.27;;
3036;SDS011;1528;52.550;13.408;2024-01-06T00:06:05;41.70;;;37.27;;
3036;SDS011;1528;52.550;13.408;2024-01-06T00:08:50;40.97;;;36.80;;
3036;SDS011;1528;52.550;13.408;2024-01-06T00:11:37;42.70;;;38.37;;
3036;SDS011;1528;52.550;13.408;2024-01-06T00:14:23;43.13;;;39.03;;
3036;SDS011;1528;52.550;13.408;2024-01-06T00:17:10;41.20;;;37.20;;
3036;SDS011;1528;52.550;13.408;2024-01-06T00:19:55;43.33;;;38.87;;
3036;SDS011;1528;52.550;13.408;2024-01-06T00:22:41;41.80;;;37.63;;
3036;SDS011;1528;52.550;13.408;2024-01-06T00:25:27;42.00;;;37.47;;
3036;SDS011;1528;52.550;13.408;2024-01-06T00:28:13;41.97;;;37.87;;
3036;SDS011;1528;52.550;13.408;2024-01-06T00:30:59;42.90;;;38.47;;
3036;SDS011;1528;52.550;13.408;2024-01-06T00:33:46;44.00;;;39.00;;
3036;SDS011;1528;52.550;13.408;2024-01-06T00:36:31;38.27;;;34.53;;
3036;SDS011;1528;52.550;13.408;2024-01-06T00:39:17;44.40;;;40.17;;
3036;SDS011;1528;52.550;13.408;2024-01-06T00:42:03;38.87;;;34.87;;
3036;SDS011;1528;52.550;13.408;2024-01-06T00:44:49;41.63;;;37.50;;
3036;SDS011;1528;52.550;13.408;2024-01-06T00:47:34;43.40;;;39.23;;
3036;SDS011;1528;52.550;13.408;2024-01-06T00:50:21;41.53;;;37.23;;
3036;SDS011;1528;52.550;13.408;2024-01-06T00:53:07;40.83;;;36.83;;
3036;SDS011;1528;52.550;13.408;2024-01-06T00:55:52;37.00;;;32.97;;
3036;SDS011;1528;52.550;13.408;2024-01-06T00:58:38;39.07;;;35.17;;
3036;SDS011;1528;52.550;13.408;2024-01-06T01:01:24;40.30;;;35.27;;
3036;SDS011;1528;52.550;13.408;2024-01-06T01:04:09;38.00;;;34.30;;
3036;SDS011;1528;52.550;13.408;2024-01-06T01:06:56;39.47;;;35.60;;
3036;SDS011;1528;52.550;13.408;2024-01-06T01:09:42;39.40;;;35.27;;
3036;SDS011;1528;52.550;13.408;2024-01-06T01:12:27;38.27;;;34.47;;
3036;SDS011;1528;52.550;13.408;2024-01-06T01:15:13;38.97;;;35.17;;
3036;SDS011;1528;52.550;13.408;2024-01-06T01:17:59;38.40;;;34.60;;
3036;SDS011;1528;52.550;13.408;2024-01-06T01:20:44;40.90;;;36.60;;
3036;SDS011;1528;52.550;13.408;2024-01-06T01:23:31;40.27;;;36.23;;
3036;SDS011;1528;52.550;13.408;2024-01-06T01:26:16;39.73;;;35.77;;
3036;SDS011;1528;52.550;13.408;2024-01-06T01:29:02;39.63;;;35.67;;
3036;SDS011;1528;52.550;13.408;2024-01-06T01:31:47;44.40;;;39.60;;
3036;SDS011;1528;52.550;13.408;2024-01-06T01:34:33;40.33;;;36.30;;
3036;SDS011;1528;52.550;13.408;2024-01-06T01:37:19;38.30;;;34.60;;
3036;SDS011;1528;52.550;13.408;2024-01-06T01:40:06;39.13;;;35.40;;
3036;SDS011;1528;52.550;13.408;2024-01-06T01:42:53;39.50;;;35.30;;
3036;SDS011;1528;52.550;13.408;2024-01-06T01:45:38;39.43;;;35.53;;
3036;SDS011;1528;52.550;13.408;2024-01-06T01:48:24;40.70;;;36.80;;
3036;SDS011;1528;52.550;13.408;2024-01-06T01:51:09;39.53;;;35.80;;
3036;SDS011;1528;52.550;13.408;2024-01-06T01:53:55;42.43;;;38.57;;
3036;SDS011;1528;52.550;13.408;2024-01-06T01:56:43;38.63;;;34.83;;
3036;SDS011;1528;52.550;13.408;2024-01-06T01:59:29;36.00;;;32.40;;
3036;SDS011;1528;52.550;13.408;2024-01-06T02:02:14;35.23;;;31.77;;
3036;SDS011;1528;52.550;13.408;2024-01-06T02:05:01;35.33;;;31.70;;
3036;SDS011;1528;52.550;13.408;2024-01-06T02:07:46;37.43;;;33.50;;
3036;SDS011;1528;52.550;13.408;2024-01-06T02:10:34;35.40;;;31.60;;
3036;SDS011;1528;52.550;13.408;2024-01-06T02:13:21;37.47;;;33.80;;
3036;SDS011;1528;52.550;13.408;2024-01-06T02:16:07;40.80;;;36.70;;
3036;SDS011;1528;52.550;13.408;2024-01-06T02:18:52;38.07;;;34.27;;
3036;SDS011;1528;52.550;13.408;2024-01-06T02:21:39;36.73;;;32.77;;
3036;SDS011;1528;52.550;13.408;2024-01-06T02:24:28;38.90;;;34.80;;
3036;SDS011;1528;52.550;13.408;2024-01-06T02:27:14;40.33;;;36.63;;
3036;SDS011;1528;52.550;13.408;2024-01-06T02:29:59;37.13;;;33.53;;
3036;SDS011;1528;52.550;13.408;2024-01-06T02:32:45;36.20;;;32.47;;
3036;SDS011;1528;52.550;13.408;2024-01-06T02:35:31;36.60;;;32.80;;
3036;SDS011;1528;52.550;13.408;2024-01-06T02:38:16;34.97;;;31.40;;
3036;SDS011;1528;52.550;13.408;2024-01-06T02:41:03;38.07;;;33.97;;
3036;SDS011;1528;52.550;13.408;2024-01-06T02:43:49;34.40;;;30.77;;
3036;SDS011;1528;52.550;13.408;2024-01-06T02:46:34;36.47;;;32.70;;
3036;SDS011;1528;52.550;13.408;2024-01-06T02:49:20;38.77;;;34.93;;
3036;SDS011;1528;52.550;13.408;2024-01-06T02:52:05;42.23;;;38.00;;
3036;SDS011;1528;52.550;13.408;2024-01-06T02:54:51;40.37;;;36.47;;
3036;SDS011;1528;52.550;13.408;2024-01-06T02:57:38;36.77;;;33.30;;
3036;SDS011;1528;52.550;13.408;2024-01-06T03:00:24;36.90;;;32.77;;
3036;SDS011;1528;52.550;13.408;2024-01-06T03:03:10;36.13;;;32.77;;
3036;SDS011;1528;52.550;13.408;2024-01-06T03:05:55;37.33;;;33.40;;
3036;SDS011;1528;52.550;13.408;2024-01-06T03:08:41;37.20;;;33.20;;
3036;SDS011;1528;52.550;13.408;2024-01-06T03:11:27;36.60;;;32.83;;
3036;SDS011;1528;52.550;13.408;2024-01-06T03:14:14;37.47;;;33.57;;
3036;SDS011;1528;52.550;13.408;2024-01-06T03:16:59;37.27;;;33.40;;
3036;SDS011;1528;52.550;13.408;2024-01-06T03:19:46;37.13;;;33.23;;
3036;SDS011;1528;52.550;13.408;2024-01-06T03:22:32;37.53;;;33.47;;
3036;SDS011;1528;52.550;13.408;2024-01-06T03:25:17;41.10;;;37.00;;
3036;SDS011;1528;52.550;13.408;2024-01-06T03:28:03;39.23;;;35.40;;
3036;SDS011;1528;52.550;13.408;2024-01-06T03:30:50;41.87;;;35.93;;
3036;SDS011;1528;52.550;13.408;2024-01-06T03:33:36;39.10;;;35.50;;
3036;SDS011;1528;52.550;13.408;2024-01-06T03:36:21;37.67;;;33.67;;
3036;SDS011;1528;52.550;13.408;2024-01-06T03:39:07;38.50;;;34.93;;
3036;SDS011;1528;52.550;13.408;2024-01-06T03:41:54;38.97;;;34.83;;
3036;SDS011;1528;52.550;13.408;2024-01-06T03:44:39;39.37;;;35.40;;
3036;SDS011;1528;52.550;13.408;2024-01-06T03:47:26;39.47;;;35.50;;
3036;SDS011;1528;52.550;13.408;2024-01-06T03:50:12;39.23;;;35.13;;
3036;SDS011;1528;52.550;13.408;2024-01-06T03:52:58;40.60;;;34.90;;
3036;SDS011;1528;52.550;13.408;2024-01-06T03:55:43;39.70;;;35.30;;
3036;SDS011;1528;52.550;13.408;2024-01-06T03:58:29;40.23;;;36.00;;
3036;SDS011;1528;52.550;13.408;2024-01-06T04:01:14;40.73;;;35.70;;
3036;SDS011;1528;52.550;13.408;2024-01-06T04:04:01;37.77;;;34.07;;
3036;SDS011;1528;52.550;13.408;2024-01-06T04:06:47;37.07;;;33.23;;
3036;SDS011;1528;52.550;13.408;2024-01-06T04:09:33;36.83;;;32.67;;
3036;SDS011;1528;52.550;13.408;2024-01-06T04:12:18;38.20;;;33.80;;
3036;SDS011;1528;52.550;13.408;2024-01-06T04:15:04;39.60;;;35.37;;
3036;SDS011;1528;52.550;13.408;2024-01-06T04:17:50;41.13;;;36.73;;
3036;SDS011;1528;52.550;13.408;2024-01-06T04:20:37;36.03;;;32.13;;
3036;SDS011;1528;52.550;13.408;2024-01-06T04:23:23;39.33;;;35.03;;
3036;SDS011;1528;52.550;13.408;2024-01-06T04:26:08;38.17;;;32.57;;
3036;SDS011;1528;52.550;13.408;2024-01-06T04:28:54;38.93;;;34.37;;
3036;SDS011;1528;52.550;13.408;2024-01-06T04:31:40;36.93;;;33.33;;
3036;SDS011;1528;52.550;13.408;2024-01-06T04:34:25;39.90;;;36.00;;
3036;SDS011;1528;52.550;13.408;2024-01-06T04:37:13;40.43;;;36.43;;
3036;SDS011;1528;52.550;13.408;2024-01-06T04:39:58;39.27;;;35.17;;
3036;SDS011;1528;52.550;13.408;2024-01-06T04:42:44;42.50;;;35.50;;
3036;SDS011;1528;52.550;13.408;2024-01-06T04:45:30;39.63;;;35.27;;
3036;SDS011;1528;52.550;13.408;2024-01-06T04:48:15;37.97;;;34.03;;
3036;SDS011;1528;52.550;13.408;2024-01-06T04:51:01;43.60;;;39.10;;
3036;SDS011;1528;52.550;13.408;2024-01-06T04:53:49;42.07;;;37.57;;
3036;SDS011;1528;52.550;13.408;2024-01-06T04:56:34;43.53;;;38.87;;
3036;SDS011;1528;52.550;13.408;2024-01-06T04:59:20;42.73;;;38.47;;
3036;SDS011;1528;52.550;13.408;2024-01-06T05:02:06;45.30;;;40.20;;
3036;SDS011;1528;52.550;13.408;2024-01-06T05:04:52;42.77;;;38.13;;
3036;SDS011;1528;52.550;13.408;2024-01-06T05:07:37;46.00;;;41.33;;
3036;SDS011;1528;52.550;13.408;2024-01-06T05:10:24;41.10;;;36.90;;
3036;SDS011;1528;52.550;13.408;2024-01-06T05:13:10;45.63;;;40.63;;
3036;SDS011;1528;52.550;13.408;2024-01-06T05:15:55;37.77;;;33.73;;
3036;SDS011;1528;52.550;13.408;2024-01-06T05:18:41;43.33;;;37.03;;
3036;SDS011;1528;52.550;13.408;2024-01-06T05:21:27;43.60;;;39.00;;
3036;SDS011;1528;52.550;13.408;2024-01-06T05:24:12;41.50;;;36.50;;
3036;SDS011;1528;52.550;13.408;2024-01-06T05:27:00;43.60;;;36.97;;
3036;SDS011;1528;52.550;13.408;2024-01-06T05:29:45;42.63;;;37.07;;
3036;SDS011;1528;52.550;13.408;2024-01-06T05:32:32;40.87;;;35.00;;
3036;SDS011;1528;52.550;13.408;2024-01-06T05:35:18;42.83;;;38.03;;
3036;SDS011;1528;52.550;13.408;2024-01-06T05:38:04;40.90;;;35.07;;
3036;SDS011;1528;52.550;13.408;2024-01-06T05:40:49;47.40;;;36.20;;
3036;SDS011;1528;52.550;13.408;2024-01-06T05:43:37;42.97;;;35.70;;
3036;SDS011;1528;52.550;13.408;2024-01-06T05:46:23;40.33;;;33.73;;
3036;SDS011;1528;52.550;13.408;2024-01-06T05:49:08;39.80;;;34.80;;
3036;SDS011;1528;52.550;13.408;2024-01-06T05:51:55;39.37;;;34.87;;
3036;SDS011;1528;52.550;13.408;2024-01-06T05:54:40;39.73;;;34.97;;
3036;SDS011;1528;52.550;13.408;2024-01-06T05:57:26;42.00;;;35.45;;
3036;SDS011;1528;52.550;13.408;2024-01-06T06:00:14;41.30;;;36.90;;
3036;SDS011;1528;52.550;13.408;2024-01-06T06:03:00;43.53;;;36.90;;
3036;SDS011;1528;52.550;13.408;2024-01-06T06:05:46;45.40;;;36.23;;
3036;SDS011;1528;52.550;13.408;2024-01-06T06:08:32;40.53;;;35.53;;
3036;SDS011;1528;52.550;13.408;2024-01-06T06:11:17;37.93;;;33.47;;
3036;SDS011;1528;52.550;13.408;2024-01-06T06:14:03;42.83;;;36.47;;
3036;SDS011;1528;52.550;13.408;2024-01-06T06:16:50;38.00;;;33.90;;
3036;SDS011;1528;52.550;13.408;2024-01-06T06:19:35;41.37;;;36.17;;
3036;SDS011;1528;52.550;13.408;2024-01-06T06:22:21;47.87;;;36.67;;
3036;SDS011;1528;52.550;13.408;2024-01-06T06:25:07;44.20;;;33.73;;
3036;SDS011;1528;52.550;13.408;2024-01-06T06:27:53;47.10;;;37.00;;
3036;SDS011;1528;52.550;13.408;2024-01-06T06:30:38;40.90;;;35.57;;
3036;SDS011;1528;52.550;13.408;2024-01-06T06:33:25;42.30;;;35.13;;
3036;SDS011;1528;52.550;13.408;2024-01-06T06:36:10;42.80;;;36.40;;
3036;SDS011;1528;52.550;13.408;2024-01-06T06:38:56;42.47;;;37.70;;
3036;SDS011;1528;52.550;13.408;2024-01-06T06:41:43;52.40;;;38.93;;
3036;SDS011;1528;52.550;13.408;2024-01-06T06:44:28;44.77;;;39.97;;
3036;SDS011;1528;52.550;13.408;2024-01-06T06:47:14;44.73;;;35.80;;
3036;SDS011;1528;52.550;13.408;2024-01-06T06:50:01;40.10;;;34.73;;
3036;SDS011;1528;52.550;13.408;2024-01-06T06:52:47;40.77;;;35.13;;
3036;SDS011;1528;52.550;13.408;2024-01-06T06:55:33;40.00;;;34.20;;
3036;SDS011;1528;52.550;13.408;2024-01-06T06:58:20;47.80;;;39.80;;
3036;SDS011;1528;52.550;13.408;2024-01-06T07:01:06;52.70;;;41.43;;
3036;SDS011;1528;52.550;13.408;2024-01-06T07:03:51;44.40;;;36.53;;
3036;SDS011;1528;52.550;13.408;2024-01-06T07:06:38;46.40;;;40.30;;
3036;SDS011;1528;52.550;13.408;2024-01-06T07:09:24;44.17;;;32.70;;
3036;SDS011;1528;52.550;13.408;2024-01-06T07:12:10;39.10;;;34.77;;
3036;SDS011;1528;52.550;13.408;2024-01-06T07:14:55;44.37;;;37.77;;
3036;SDS011;1528;52.550;13.408;2024-01-06T07:17:42;48.47;;;37.50;;
3036;SDS011;1528;52.550;13.408;2024-01-06T07:20:30;39.47;;;34.13;;
3036;SDS011;1528;52.550;13.408;2024-01-06T07:23:16;45.80;;;38.30;;
3036;SDS011;1528;52.550;13.408;2024-01-06T07:26:02;46.10;;;36.50;;
3036;SDS011;1528;52.550;13.408;2024-01-06T07:28:48;49.43;;;37.10;;
3036;SDS011;1528;52.550;13.408;2024-01-06T07:31:33;45.87;;;40.60;;
3036;SDS011;1528;52.550;13.408;2024-01-06T07:34:19;45.80;;;37.60;;
3036;SDS011;1528;52.550;13.408;2024-01-06T07:37:04;48.17;;;36.17;;
3036;SDS011;1528;52.550;13.408;2024-01-06T07:39:52;51.33;;;38.20;;
3036;SDS011;1528;52.550;13.408;2024-01-06T07:42:37;44.13;;;36.87;;
3036;SDS011;1528;52.550;13.408;2024-01-06T07:45:23;45.23;;;35.90;;
3036;SDS011;1528;52.550;13.408;2024-01-06T07:48:08;45.80;;;37.70;;
3036;SDS011;1528;52.550;13.408;2024-01-06T07:50:54;47.13;;;37.43;;
3036;SDS011;1528;52.550;13.408;2024-01-06T07:53:40;47.23;;;37.67;;
3036;SDS011;1528;52.550;13.408;2024-01-06T07:56:27;45.60;;;35.67;;
3036;SDS011;1528;52.550;13.408;2024-01-06T07:59:13;45.30;;;35.90;;
3036;SDS011;1528;52.550;13.408;2024-01-06T08:01:58;45.40;;;39.30;;
3036;SDS011;1528;52.550;13.408;2024-01-06T08:04:44;46.43;;;38.93;;
3036;SDS011;1528;52.550;13.408;2024-01-06T08:07:30;43.23;;;36.40;;
3036;SDS011;1528;52.550;13.408;2024-01-06T08:10:15;49.90;;;38.27;;
3036;SDS011;1528;52.550;13.408;2024-01-06T08:13:02;41.97;;;34.97;;
3036;SDS011;1528;52.550;13.408;2024-01-06T08:15:48;46.63;;;38.10;;
3036;SDS011;1528;52.550;13.408;2024-01-06T08:18:34;42.77;;;34.60;;
3036;SDS011;1528;52.550;13.408;2024-01-06T08:21:20;47.77;;;38.20;;
3036;SDS011;1528;52.550;13.408;2024-01-06T08:24:06;44.07;;;36.63;;
3036;SDS011;1528;52.550;13.408;2024-01-06T08:26:51;41.57;;;36.27;;
3036;SDS011;1528;52.550;13.408;2024-01-06T08:29:38;42.77;;;37.70;;
3036;SDS011;1528;52.550;13.408;2024-01-06T08:32:24;44.50;;;36.80;;
3036;SDS011;1528;52.550;13.408;2024-01-06T08:35:09;49.90;;;37.80;;
3036;SDS011;1528;52.550;13.408;2024-01-06T08:37:55;49.20;;;37.10;;
3036;SDS011;1528;52.550;13.408;2024-01-06T08:40:40;55.20;;;45.93;;
3036;SDS011;1528;52.550;13.408;2024-01-06T08:43:27;44.77;;;39.77;;
3036;SDS011;1528;52.550;13.408;2024-01-06T08:46:14;44.40;;;39.73;;
3036;SDS011;1528;52.550;13.408;2024-01-06T08:49:01;44.90;;;40.10;;
3036;SDS011;1528;52.550;13.408;2024-01-06T08:51:46;41.70;;;36.90;;
3036;SDS011;1528;52.550;13.408;2024-01-06T08:54:32;49.07;;;39.60;;
3036;SDS011;1528;52.550;13.408;2024-01-06T08:57:18;47.73;;;38.50;;
3036;SDS011;1528;52.550;13.408;2024-01-06T09:00:05;47.07;;;38.87;;
3036;SDS011;1528;52.550;13.408;2024-01-06T09:02:56;42.20;;;37.60;;
3036;SDS011;1528;52.550;13.408;2024-01-06T09:05:41;40.97;;;36.53;;
3036;SDS011;1528;52.550;13.408;2024-01-06T09:08:26;43.00;;;37.13;;
3036;SDS011;1528;52.550;13.408;2024-01-06T09:11:12;44.50;;;36.83;;
3036;SDS011;1528;52.550;13.408;2024-01-06T09:13:58;47.70;;;37.77;;
3036;SDS011;1528;52.550;13.408;2024-01-06T09:16:44;51.90;;;39.93;;
3036;SDS011;1528;52.550;13.408;2024-01-06T09:19:31;44.07;;;39.30;;
3036;SDS011;1528;52.550;13.408;2024-01-06T09:22:17;42.50;;;37.83;;
3036;SDS011;1528;52.550;13.408;2024-01-06T09:25:03;45.47;;;39.17;;
3036;SDS011;1528;52.550;13.408;2024-01-06T09:27:49;46.27;;;38.97;;
3036;SDS011;1528;52.550;13.408;2024-01-06T09:30:37;46.67;;;42.03;;
3036;SDS011;1528;52.550;13.408;2024-01-06T09:33:22;41.37;;;36.47;;
3036;SDS011;1528;52.550;13.408;2024-01-06T09:36:09;41.50;;;37.13;;
3036;SDS011;1528;52.550;13.408;2024-01-06T09:38:57;42.73;;;38.17;;
3036;SDS011;1528;52.550;13.408;2024-01-06T09:41:43;41.40;;;37.10;;
3036;SDS011;1528;52.550;13.408;2024-01-06T09:44:29;40.10;;;35.77;;
3036;SDS011;1528;52.550;13.408;2024-01-06T09:47:15;40.10;;;35.33;;
3036;SDS011;1528;52.550;13.408;2024-01-06T09:50:03;40.73;;;36.23;;
3036;SDS011;1528;52.550;13.408;2024-01-06T09:52:54;43.57;;;34.47;;
3036;SDS011;1528;52.550;13.408;2024-01-06T09:55:49;40.47;;;36.07;;
3036;SDS011;1528;52.550;13.408;2024-01-06T09:58:36;41.73;;;36.20;;
3036;SDS011;1528;52.550;13.408;2024-01-06T10:01:23;42.00;;;37.40;;
3036;SDS011;1528;52.550;13.408;2024-01-06T10:04:09;41.67;;;37.20;;
3036;SDS011;1528;52.550;13.408;2024-01-06T10:06:55;43.80;;;37.93;;
3036;SDS011;1528;52.550;13.408;2024-01-06T10:09:42;41.90;;;37.50;;
3036;SDS011;1528;52.550;13.408;2024-01-06T10:12:27;41.57;;;37.10;;
3036;SDS011;1528;52.550;13.408;2024-01-06T10:15:12;39.27;;;34.90;;
3036;SDS011;1528;52.550;13.408;2024-01-06T10:17:58;40.13;;;36.00;;
3036;SDS011;1528;52.550;13.408;2024-01-06T10:20:44;41.97;;;37.47;;
3036;SDS011;1528;52.550;13.408;2024-01-06T10:23:30;44.37;;;37.17;;
3036;SDS011;1528;52.550;13.408;2024-01-06T10:26:18;39.20;;;35.07;;
3036;SDS011;1528;52.550;13.408;2024-01-06T10:29:03;36.47;;;32.53;;
3036;SDS011;1528;52.550;13.408;2024-01-06T10:31:49;39.00;;;35.10;;
3036;SDS011;1528;52.550;13.408;2024-01-06T10:34:36;37.03;;;33.50;;
3036;SDS011;1528;52.550;13.408;2024-01-06T10:37:23;36.37;;;32.47;;
3036;SDS011;1528;52.550;13.408;2024-01-06T10:40:09;39.63;;;34.97;;
3036;SDS011;1528;52.550;13.408;2024-01-06T10:42:58;39.57;;;35.33;;
3036;SDS011;1528;52.550;13.408;2024-01-06T10:45:45;40.57;;;36.53;;
3036;SDS011;1528;52.550;13.408;2024-01-06T10:48:31;41.30;;;37.10;;
3036;SDS011;1528;52.550;13.408;2024-01-06T10:51:17;37.67;;;34.03;;
3036;SDS011;1528;52.550;13.408;2024-01-06T10:54:06;37.20;;;33.60;;
3036;SDS011;1528;52.550;13.408;2024-01-06T10:56:53;37.03;;;33.10;;
3036;SDS011;1528;52.550;13.408;2024-01-06T10:59:42;40.33;;;36.13;;
3036;SDS011;1528;52.550;13.408;2024-01-06T11:02:29;42.13;;;37.83;;
3036;SDS011;1528;52.550;13.408;2024-01-06T11:05:16;38.47;;;34.53;;
3036;SDS011;1528;52.550;13.408;2024-01-06T11:08:02;35.60;;;32.10;;
3036;SDS011;1528;52.550;13.408;2024-01-06T11:10:48;36.97;;;32.97;;
3036;SDS011;1528;52.550;13.408;2024-01-06T11:13:34;39.03;;;35.33;;
3036;SDS011;1528;52.550;13.408;2024-01-06T11:16:36;39.37;;;34.17;;
3036;SDS011;1528;52.550;13.408;2024-01-06T11:22:27;35.33;;;31.90;;
3036;SDS011;1528;52.550;13.408;2024-01-06T11:25:15;42.87;;;38.17;;
3036;SDS011;1528;52.550;13.408;2024-01-06T11:28:02;38.10;;;34.30;;
3036;SDS011;1528;52.550;13.408;2024-01-06T11:31:04;37.40;;;33.80;;
3036;SDS011;1528;52.550;13.408;2024-01-06T11:33:54;36.00;;;32.30;;
3036;SDS011;1528;52.550;13.408;2024-01-06T11:36:39;39.60;;;34.43;;
3036;SDS011;1528;52.550;13.408;2024-01-06T11:39:34;37.30;;;33.30;;
3036;SDS011;1528;52.550;13.408;2024-01-06T11:42:22;41.53;;;37.10;;
3036;SDS011;1528;52.550;13.408;2024-01-06T11:45:17;39.67;;;35.47;;
3036;SDS011;1528;52.550;13.408;2024-01-06T11:48:03;38.90;;;35.07;;
3036;SDS011;1528;52.550;13.408;2024-01-06T11:50:51;37.80;;;33.77;;
3036;SDS011;1528;52.550;13.408;2024-01-06T11:53:36;37.73;;;34.03;;
3036;SDS011;1528;52.550;13.408;2024-01-06T11:56:22;35.63;;;31.97;;
3036;SDS011;1528;52.550;13.408;2024-01-06T11:59:11;36.93;;;33.17;;
3036;SDS011;1528;52.550;13.408;2024-01-06T12:01:56;36.77;;;33.00;;
3036;SDS011;1528;52.550;13.408;2024-01-06T12:04:42;39.53;;;35.43;;
3036;SDS011;1528;52.550;13.408;2024-01-06T12:07:34;36.80;;;33.13;;
3036;SDS011;1528;52.550;13.408;2024-01-06T12:10:20;38.37;;;34.67;;
3036;SDS011;1528;52.550;13.408;2024-01-06T12:13:06;39.23;;;35.20;;
3036;SDS011;1528;52.550;13.408;2024-01-06T12:15:53;36.53;;;32.93;;
3036;SDS011;1528;52.550;13.408;2024-01-06T12:18:40;38.23;;;34.10;;
3036;SDS011;1528;52.550;13.408;2024-01-06T12:21:25;37.77;;;34.00;;
3036;SDS011;1528;52.550;13.408;2024-01-06T12:24:22;38.33;;;34.60;;
3036;SDS011;1528;52.550;13.408;2024-01-06T12:27:08;37.27;;;32.87;;
3036;SDS011;1528;52.550;13.408;2024-01-06T12:29:54;35.57;;;32.20;;
3036;SDS011;1528;52.550;13.408;2024-01-06T12:32:40;35.53;;;31.83;;
3036;SDS011;1528;52.550;13.408;2024-01-06T12:35:26;38.53;;;34.70;;
3036;SDS011;1528;52.550;13.408;2024-01-06T12:38:12;38.27;;;34.47;;
3036;SDS011;1528;52.550;13.408;2024-01-06T12:40:59;36.03;;;32.27;;
3036;SDS011;1528;52.550;13.408;2024-01-06T12:43:46;34.73;;;31.13;;
3036;SDS011;1528;52.550;13.408;2024-01-06T12:46:32;33.50;;;29.57;;
3036;SDS011;1528;52.550;13.408;2024-01-06T12:49:18;34.83;;;31.27;;
3036;SDS011;1528;52.550;13.408;2024-01-06T12:52:04;36.33;;;32.50;;
3036;SDS011;1528;52.550;13.408;2024-01-06T12:54:49;34.10;;;30.80;;
3036;SDS011;1528;52.550;13.408;2024-01-06T12:57:37;34.00;;;30.37;;
3036;SDS011;1528;52.550;13.408;2024-01-06T13:00:22;35.43;;;31.97;;
3036;SDS011;1528;52.550;13.408;2024-01-06T13:03:08;34.13;;;30.73;;
3036;SDS011;1528;52.550;13.408;2024-01-06T13:05:54;36.23;;;32.67;;
3036;SDS011;1528;52.550;13.408;2024-01-06T13:08:40;37.33;;;33.53;;
3036;SDS011;1528;52.550;13.408;2024-01-06T13:11:25;36.73;;;30.70;;
3036;SDS011;1528;52.550;13.408;2024-01-06T13:14:13;33.93;;;30.33;;
3036;SDS011;1528;52.550;13.408;2024-01-06T13:16:58;33.43;;;30.30;;
3036;SDS011;1528;52.550;13.408;2024-01-06T13:19:44;36.87;;;32.97;;
3036;SDS011;1528;52.550;13.408;2024-01-06T13:22:30;34.70;;;31.10;;
3036;SDS011;1528;52.550;13.408;2024-01-06T13:25:15;31.97;;;28.83;;
3036;SDS011;1528;52.550;13.408;2024-01-06T13:28:03;33.90;;;30.43;;
3036;SDS011;1528;52.550;13.408;2024-01-06T13:30:51;32.97;;;29.67;;
3036;SDS011;1528;52.550;13.408;2024-01-06T13:33:37;34.43;;;31.07;;
3036;SDS011;1528;52.550;13.408;2024-01-06T13:36:23;34.90;;;31.63;;
3036;SDS011;1528;52.550;13.408;2024-01-06T13:39:08;31.07;;;28.10;;
3036;SDS011;1528;52.550;13.408;2024-01-06T13:42:00;31.83;;;28.63;;
3036;SDS011;1528;52.550;13.408;2024-01-06T13:44:47;32.27;;;29.20;;
3036;SDS011;1528;52.550;13.408;2024-01-06T13:47:34;32.10;;;28.83;;
3036;SDS011;1528;52.550;13.408;2024-01-06T13:50:19;32.83;;;29.70;;
3036;SDS011;1528;52.550;13.408;2024-01-06T13:53:05;33.50;;;30.37;;
3036;SDS011;1528;52.550;13.408;2024-01-06T13:55:51;31.03;;;28.03;;
3036;SDS011;1528;52.550;13.408;2024-01-06T13:58:36;30.67;;;27.67;;
3036;SDS011;1528;52.550;13.408;2024-01-06T14:01:22;33.53;;;30.33;;
3036;SDS011;1528;52.550;13.408;2024-01-06T14:04:09;30.40;;;27.40;;
3036;SDS011;1528;52.550;13.408;2024-01-06T14:06:56;30.53;;;27.70;;
3036;SDS011;1528;52.550;13.408;2024-01-06T14:09:42;28.27;;;25.70;;
3036;SDS011;1528;52.550;13.408;2024-01-06T14:12:28;33.80;;;30.70;;
3036;SDS011;1528;52.550;13.408;2024-01-06T14:15:13;32.57;;;29.47;;
3036;SDS011;1528;52.550;13.408;2024-01-06T14:17:59;25.97;;;23.27;;
3036;SDS011;1528;52.550;13.408;2024-01-06T14:20:46;29.40;;;26.47;;
3036;SDS011;1528;52.550;13.408;2024-01-06T14:23:32;28.57;;;25.93;;
3036;SDS011;1528;52.550;13.408;2024-01-06T14:26:17;29.23;;;26.57;;
3036;SDS011;1528;52.550;13.408;2024-01-06T14:29:04;29.10;;;26.20;;
3036;SDS011;1528;52.550;13.408;2024-01-06T14:31:49;27.67;;;25.03;;
3036;SDS011;1528;52.550;13.408;2024-01-06T14:34:35;25.63;;;23.20;;
3036;SDS011;1528;52.550;13.408;2024-01-06T14:37:22;27.47;;;24.80;;
3036;SDS011;1528;52.550;13.408;2024-01-06T14:40:08;31.00;;;28.40;;
3036;SDS011;1528;52.550;13.408;2024-01-06T14:42:56;27.30;;;24.80;;
3036;SDS011;1528;52.550;13.408;2024-01-06T14:45:42;29.40;;;26.43;;
3036;SDS011;1528;52.550;13.408;2024-01-06T14:48:27;26.13;;;23.63;;
3036;SDS011;1528;52.550;13.408;2024-01-06T14:51:13;25.60;;;23.23;;
3036;SDS011;1528;52.550;13.408;2024-01-06T14:54:00;27.60;;;25.10;;
3036;SDS011;1528;52.550;13.408;2024-01-06T14:56:46;26.37;;;24.00;;
3036;SDS011;1528;52.550;13.408;2024-01-06T14:59:31;26.13;;;23.73;;
3036;SDS011;1528;52.550;13.408;2024-01-06T15:02:20;25.07;;;22.87;;
3036;SDS011;1528;52.550;13.408;2024-01-06T15:05:06;26.50;;;24.20;;
3036;SDS011;1528;52.550;13.408;2024-01-06T15:07:53;28.20;;;25.50;;
3036;SDS011;1528;52.550;13.408;2024-01-06T15:10:39;27.00;;;24.60;;
3036;SDS011;1528;52.550;13.408;2024-01-06T15:13:25;27.40;;;24.80;;
3036;SDS011;1528;52.550;13.408;2024-01-06T15:16:11;25.83;;;23.40;;
3036;SDS011;1528;52.550;13.408;2024-01-06T15:18:57;25.13;;;22.90;;
3036;SDS011;1528;52.550;13.408;2024-01-06T15:21:43;23.07;;;21.03;;
3036;SDS011;1528;52.550;13.408;2024-01-06T15:24:31;23.77;;;21.57;;
3036;SDS011;1528;52.550;13.408;2024-01-06T15:27:18;23.30;;;21.37;;
3036;SDS011;1528;52.550;13.408;2024-01-06T15:30:04;21.53;;;19.80;;
3036;SDS011;1528;52.550;13.408;2024-01-06T15:32:52;21.33;;;19.50;;
3036;SDS011;1528;52.550;13.408;2024-01-06T15:35:38;20.87;;;18.93;;
3036;SDS011;1528;52.550;13.408;2024-01-06T15:38:23;23.13;;;21.27;;
3036;SDS011;1528;52.550;13.408;2024-01-06T15:41:10;22.63;;;20.87;;
3036;SDS011;1528;52.550;13.408;2024-01-06T15:43:57;20.57;;;19.00;;
3036;SDS011;1528;52.550;13.408;2024-01-06T15:46:43;19.40;;;17.57;;
3036;SDS011;1528;52.550;13.408;2024-01-06T15:49:29;20.10;;;18.20;;
3036;SDS011;1528;52.550;13.408;2024-01-06T15:52:14;18.10;;;16.30;;
3036;SDS011;1528;52.550;13.408;2024-01-06T15:55:05;19.27;;;17.57;;
3036;SDS011;1528;52.550;13.408;2024-01-06T15:57:51;19.00;;;17.30;;
3036;SDS011;1528;52.550;13.408;2024-01-06T16:00:37;18.47;;;16.73;;
3036;SDS011;1528;52.550;13.408;2024-01-06T16:03:23;17.10;;;15.70;;
3036;SDS011;1528;52.550;13.408;2024-01-06T16:06:09;21.20;;;19.53;;
3036;SDS011;1528;52.550;13.408;2024-01-06T16:08:54;19.23;;;17.60;;
3036;SDS011;1528;52.550;13.408;2024-01-06T16:11:40;17.33;;;15.93;;
3036;SDS011;1528;52.550;13.408;2024-01-06T16:14:25;18.50;;;17.10;;
3036;SDS011;1528;52.550;13.408;2024-01-06T16:17:12;16.83;;;15.48;;
3036;SDS011;1528;52.550;13.408;2024-01-06T16:19:58;18.87;;;17.47;;
3036;SDS011;1528;52.550;13.408;2024-01-06T16:22:43;15.50;;;14.07;;
3036;SDS011;1528;52.550;13.408;2024-01-06T16:25:30;17.97;;;16.67;;
3036;SDS011;1528;52.550;13.408;2024-01-06T16:28:16;19.27;;;17.53;;